VVCL weather

Cam Ly Airport
Lam Dong Province, Vietnam

Public forecast

Using degrees Celsius for public forecast. Weather courtesy of forecast.io.

Closest aviation weather report (METAR) to Cam Ly Airport

Closest report is Cam Ranh Airport, 47.5 nm (88.1 km) E. Retrieved 2019/10/20 22:30 UTC (0 seconds ago):

VVCR 202230Z 36006KT 9999 FEW013 SCT050 26/26 Q1011 NOSIG

Closest aviation forecast (TAF) to Cam Ly Airport

Closest forecast is Cam Ranh Airport, 47.5 nm (88.1 km) E. Retrieved 2019/10/20 18:00 UTC (4 hours ago):

TAF VVCR 201700Z 2018/2118 05012KT 9999 SCT013 SCT050 BECMG 2021/2022 35008KT TEMPO 2022/2103 5000 TSRA BKN013 FEW015CB BECMG 2103/2104 05012KT